createdAt,value
2023-12-16T00:02:18.868Z,0
2023-12-16T00:07:38.292Z,0
2023-12-16T00:12:56.653Z,0
2023-12-16T00:18:15.825Z,0
2023-12-16T00:23:35.144Z,0
2023-12-16T00:28:54.186Z,0
2023-12-16T00:34:13.887Z,0
2023-12-16T00:39:33.160Z,0
2023-12-16T00:44:52.089Z,0
2023-12-16T00:50:11.058Z,0
2023-12-16T00:55:30.960Z,0
2023-12-16T01:00:49.530Z,0
2023-12-16T01:06:08.777Z,0
2023-12-16T01:11:28.532Z,0
2023-12-16T01:16:47.246Z,0
2023-12-16T01:22:06.553Z,0
2023-12-16T01:27:25.844Z,0
2023-12-16T01:32:45.148Z,0
2023-12-16T01:38:04.900Z,0
2023-12-16T01:43:23.218Z,0
2023-12-16T01:48:42.962Z,0
2023-12-16T01:54:02.028Z,0
2023-12-16T01:59:20.817Z,0
2023-12-16T02:04:40.465Z,0
2023-12-16T02:09:59.638Z,0
2023-12-16T02:15:19.134Z,0
2023-12-16T02:20:38.746Z,0
2023-12-16T02:25:57.837Z,0
2023-12-16T02:31:16.816Z,0
2023-12-16T02:36:36.395Z,0
2023-12-16T02:42:59.862Z,651.66
2023-12-16T02:47:50.234Z,0
2023-12-16T02:53:09.436Z,0
2023-12-16T02:58:28.692Z,0
2023-12-16T03:03:47.566Z,0
2023-12-16T03:09:06.805Z,0
2023-12-16T03:14:26.234Z,0
2023-12-16T03:19:44.971Z,0
2023-12-16T03:25:04.338Z,0
2023-12-16T03:30:24.080Z,0
2023-12-16T03:35:43.484Z,0
2023-12-16T03:41:02.295Z,0
2023-12-16T03:46:21.689Z,0
2023-12-16T03:51:40.995Z,0
2023-12-16T03:57:00.620Z,0
2023-12-16T04:02:20.055Z,0
2023-12-16T04:07:39.007Z,0
2023-12-16T04:12:58.006Z,651.66
2023-12-16T04:18:17.756Z,651.66
2023-12-16T04:23:36.635Z,651.66
2023-12-16T04:28:55.358Z,651.66
2023-12-16T04:34:14.741Z,647.96
2023-12-16T04:39:33.885Z,651.66
2023-12-16T04:44:52.245Z,651.66
2023-12-16T04:50:11.088Z,647.96
2023-12-16T04:55:30.484Z,651.66
2023-12-16T05:00:50.674Z,647.96
2023-12-16T05:06:09.864Z,651.66
2023-12-16T05:11:28.769Z,651.66
2023-12-16T05:16:47.789Z,0
2023-12-16T05:22:07.286Z,0
2023-12-16T05:27:26.577Z,0
2023-12-16T05:32:46.480Z,0
2023-12-16T05:38:05.246Z,0
2023-12-16T05:43:24.348Z,0
2023-12-16T05:48:44.176Z,0
2023-12-16T05:54:03.361Z,0
2023-12-16T05:59:22.723Z,0
2023-12-16T06:04:42.149Z,0
2023-12-16T06:10:02.855Z,0
2023-12-16T06:15:20.672Z,0
2023-12-16T06:20:39.576Z,0
2023-12-16T06:25:58.625Z,0
2023-12-16T06:31:18.128Z,0
2023-12-16T06:36:38.034Z,0
2023-12-16T06:41:56.350Z,0
2023-12-16T06:47:16.049Z,0
2023-12-16T06:52:35.139Z,0
2023-12-16T06:57:54.576Z,1
2023-12-16T07:03:14.402Z,5
2023-12-16T07:08:33.344Z,12
2023-12-16T07:13:52.314Z,12
2023-12-16T07:19:12.123Z,19
2023-12-16T07:24:31.123Z,25.05
2023-12-16T07:29:49.934Z,25.15
2023-12-16T07:35:09.377Z,34.3
2023-12-16T07:40:29.068Z,36.3
2023-12-16T07:45:48.723Z,37.14
2023-12-16T07:51:07.239Z,45.94
2023-12-16T07:56:26.182Z,49.85
2023-12-16T08:01:45.757Z,46.54
2023-12-16T08:07:04.775Z,54.15
2023-12-16T08:12:24.628Z,53.9
2023-12-16T08:17:45.069Z,54.79
2023-12-16T08:23:03.816Z,59.55
2023-12-16T08:28:22.382Z,64.75
2023-12-16T08:33:41.427Z,73.84
2023-12-16T08:44:20.072Z,107.19
2023-12-16T08:49:39.049Z,106.94
2023-12-16T08:54:57.825Z,112.64
2023-12-16T09:00:17.480Z,112.39
2023-12-16T09:05:36.745Z,119.35
2023-12-16T09:10:55.749Z,121.85
2023-12-16T09:16:14.421Z,124.85
2023-12-16T09:21:33.654Z,135.19
2023-12-16T09:26:52.825Z,129.89
2023-12-16T09:32:11.836Z,135.14
2023-12-16T09:37:30.451Z,132.44
2023-12-16T09:42:49.372Z,150.59
2023-12-16T09:48:08.783Z,173.54
2023-12-16T09:53:27.789Z,208.95
2023-12-16T09:58:47.504Z,197.45
2023-12-16T10:04:06.550Z,174.14
2023-12-16T10:09:25.384Z,185.59
2023-12-16T10:14:45.319Z,183.04
2023-12-16T10:20:04.451Z,202.54
2023-12-16T10:25:22.966Z,189.75
2023-12-16T10:30:41.821Z,223
2023-12-16T10:36:00.997Z,240.64
2023-12-16T10:41:20.738Z,230.75
2023-12-16T10:46:40.480Z,223.89
2023-12-16T10:51:59.280Z,228.79
2023-12-16T10:57:18.536Z,256.09
2023-12-16T11:02:37.709Z,272.89
2023-12-16T11:07:56.607Z,284.64
2023-12-16T11:13:16.235Z,290.5
2023-12-16T11:18:35.712Z,253.09
2023-12-16T11:23:55.159Z,266.5
2023-12-16T11:29:13.990Z,319.19
2023-12-16T11:34:33.347Z,339.25
2023-12-16T11:39:52.153Z,0
2023-12-16T11:45:11.137Z,0
2023-12-16T11:50:29.869Z,239.41
2023-12-16T11:55:49.200Z,596.16
2023-12-16T12:06:28.148Z,459.26
2023-12-16T12:11:47.602Z,359.36
2023-12-16T12:22:26.549Z,385.26
2023-12-16T12:27:45.884Z,166.5
2023-12-16T12:33:05.071Z,132.5
2023-12-16T12:38:23.831Z,151.54
2023-12-16T12:43:42.416Z,127.5
2023-12-16T12:49:01.675Z,116.85
2023-12-16T12:54:21.358Z,99.79
2023-12-16T12:59:56.623Z,125.14
2023-12-16T13:04:59.155Z,116.94
2023-12-16T13:10:17.823Z,118.5
2023-12-16T13:15:51.958Z,128.69
2023-12-16T13:20:56.342Z,138.44
2023-12-16T13:31:34.742Z,140.79
2023-12-16T13:36:55.878Z,135.6
2023-12-16T13:42:13.652Z,143.79
2023-12-16T13:47:34.087Z,136.69
2023-12-16T13:52:52.186Z,138.94
2023-12-16T13:58:11.803Z,109
2023-12-16T14:03:31.669Z,95.94
2023-12-16T14:08:50.326Z,115.64
2023-12-16T14:14:10.123Z,72.69
2023-12-16T14:19:28.723Z,71.39
2023-12-16T14:24:48.135Z,73.84
2023-12-16T14:30:07.449Z,78.64
2023-12-16T14:35:26.753Z,72.55
2023-12-16T14:46:05.834Z,70.64
2023-12-16T14:51:24.526Z,64.89
2023-12-16T15:02:03.373Z,47.69
2023-12-16T15:07:23.104Z,46.7
2023-12-16T15:12:42.938Z,40.64
2023-12-16T15:18:01.816Z,39.34
2023-12-16T15:23:21.406Z,31.15
2023-12-16T15:28:40.574Z,27
2023-12-16T15:34:00.049Z,17
2023-12-16T15:39:18.538Z,8
2023-12-16T15:44:38.259Z,3
2023-12-16T15:49:57.014Z,0
2023-12-16T15:55:16.745Z,0
2023-12-16T16:00:35.400Z,0
2023-12-16T16:05:54.681Z,0
2023-12-16T16:11:13.918Z,0
2023-12-16T16:16:32.887Z,0
2023-12-16T16:21:52.657Z,0
2023-12-16T16:27:12.525Z,0
2023-12-16T16:37:51.176Z,0
2023-12-16T16:43:10.685Z,0
2023-12-16T16:48:30.051Z,0
2023-12-16T16:53:49.824Z,0
2023-12-16T17:04:28.809Z,0
2023-12-16T17:09:48.247Z,0
2023-12-16T17:15:07.380Z,0
2023-12-16T17:20:26.658Z,0
2023-12-16T17:25:45.217Z,0
2023-12-16T17:31:04.928Z,0
2023-12-16T17:36:23.471Z,0
2023-12-16T17:41:42.322Z,0
2023-12-16T17:47:01.956Z,0
2023-12-16T17:52:21.168Z,0
2023-12-16T17:57:40.730Z,0
2023-12-16T18:03:00.420Z,0
2023-12-16T18:13:38.115Z,0
2023-12-16T18:18:57.628Z,0
2023-12-16T18:24:16.724Z,0
2023-12-16T18:29:36.266Z,0
2023-12-16T18:34:55.556Z,0
2023-12-16T18:45:34.299Z,0
2023-12-16T18:56:12.160Z,0
2023-12-16T19:01:31.316Z,0
2023-12-16T19:06:50.469Z,0
2023-12-16T19:12:10.264Z,0
2023-12-16T19:17:29.107Z,0
2023-12-16T19:28:08.428Z,0
2023-12-16T19:33:27.352Z,0
2023-12-16T19:38:47.129Z,0
2023-12-16T19:44:06.284Z,0
2023-12-16T19:49:26.263Z,0
2023-12-16T19:54:45.587Z,0
2023-12-16T20:00:04.889Z,0
2023-12-16T20:05:24.809Z,0
2023-12-16T20:10:43.839Z,0
2023-12-16T20:16:04.265Z,0
2023-12-16T20:21:22.866Z,0
2023-12-16T20:26:41.649Z,0
2023-12-16T20:27:18.079Z,0
2023-12-16T20:32:36.644Z,0
2023-12-16T20:37:53.259Z,0
2023-12-16T20:43:12.384Z,0
2023-12-16T20:48:31.668Z,0
2023-12-16T20:53:50.744Z,0
2023-12-16T20:59:10.274Z,0
2023-12-16T21:09:48.985Z,0
2023-12-16T21:15:08.106Z,0
2023-12-16T21:20:27.747Z,0
2023-12-16T21:25:46.567Z,0
2023-12-16T21:31:05.767Z,0
2023-12-16T21:41:45.196Z,0
2023-12-16T21:52:24.144Z,0
2023-12-16T21:57:43.068Z,0
2023-12-16T22:03:02.671Z,0
2023-12-16T22:08:22.369Z,0
2023-12-16T22:13:41.705Z,0
2023-12-16T22:19:01.070Z,0
2023-12-16T22:24:20.980Z,0
2023-12-16T22:29:38.781Z,0
2023-12-16T22:34:57.826Z,0
2023-12-16T22:40:16.485Z,0
2023-12-16T22:45:36.335Z,0
2023-12-16T22:50:56.020Z,0
2023-12-16T22:56:15.599Z,0
2023-12-16T23:01:34.733Z,0
2023-12-16T23:06:53.992Z,0
2023-12-16T23:17:32.081Z,0
2023-12-16T23:22:51.835Z,0
2023-12-16T23:28:10.942Z,0
2023-12-16T23:33:31.277Z,0
2023-12-16T23:44:08.917Z,0
2023-12-16T23:49:28.456Z,0
2023-12-16T23:54:47.891Z,0
